sensor_id;sensor_type;location;lat;lon;timestamp;temperature;humidity
18252;DHT22;26917;52.328;20.878;2023-02-15T00:00:17;1.80;99.90
18252;DHT22;26917;52.328;20.878;2023-02-15T00:02:46;2.20;99.90
18252;DHT22;26917;52.328;20.878;2023-02-15T00:05:16;2.20;99.90
18252;DHT22;26917;52.328;20.878;2023-02-15T00:07:44;2.20;99.90
18252;DHT22;26917;52.328;20.878;2023-02-15T00:10:12;2.20;99.90
18252;DHT22;26917;52.328;20.878;2023-02-15T00:12:41;2.50;99.90
18252;DHT22;26917;52.328;20.878;2023-02-15T00:15:09;2.10;99.90
18252;DHT22;26917;52.328;20.878;2023-02-15T00:17:39;2.80;99.90
18252;DHT22;26917;52.328;20.878;2023-02-15T00:20:08;2.50;99.90
18252;DHT22;26917;52.328;20.878;2023-02-15T00:22:39;2.10;99.90
18252;DHT22;26917;52.328;20.878;2023-02-15T00:25:07;1.90;99.90
18252;DHT22;26917;52.328;20.878;2023-02-15T00:27:36;2.30;99.90
18252;DHT22;26917;52.328;20.878;2023-02-15T00:30:05;1.70;99.90
18252;DHT22;26917;52.328;20.878;2023-02-15T00:32:34;2.10;99.90
18252;DHT22;26917;52.328;20.878;2023-02-15T00:35:03;2.60;99.90
18252;DHT22;26917;52.328;20.878;2023-02-15T00:37:33;2.10;99.90
18252;DHT22;26917;52.328;20.878;2023-02-15T00:40:05;1.80;99.90
18252;DHT22;26917;52.328;20.878;2023-02-15T00:42:34;2.10;99.90
18252;DHT22;26917;52.328;20.878;2023-02-15T00:45:03;1.90;99.90
18252;DHT22;26917;52.328;20.878;2023-02-15T00:47:32;2.20;99.90
18252;DHT22;26917;52.328;20.878;2023-02-15T00:50:00;2.10;99.90
18252;DHT22;26917;52.328;20.878;2023-02-15T00:52:30;2.30;99.90
18252;DHT22;26917;52.328;20.878;2023-02-15T00:54:58;3.30;99.90
18252;DHT22;26917;52.328;20.878;2023-02-15T00:57:28;2.60;99.90
18252;DHT22;26917;52.328;20.878;2023-02-15T00:59:56;3.10;99.90
18252;DHT22;26917;52.328;20.878;2023-02-15T01:02:24;2.30;99.90
18252;DHT22;26917;52.328;20.878;2023-02-15T01:04:53;2.90;99.90
18252;DHT22;26917;52.328;20.878;2023-02-15T01:07:22;2.30;99.90
18252;DHT22;26917;52.328;20.878;2023-02-15T01:09:51;2.40;99.90
18252;DHT22;26917;52.328;20.878;2023-02-15T01:12:19;2.80;99.90
18252;DHT22;26917;52.328;20.878;2023-02-15T01:14:50;2.40;99.90
18252;DHT22;26917;52.328;20.878;2023-02-15T01:17:19;1.90;99.90
18252;DHT22;26917;52.328;20.878;2023-02-15T01:19:47;2.90;99.90
18252;DHT22;26917;52.328;20.878;2023-02-15T01:22:15;3.00;99.90
18252;DHT22;26917;52.328;20.878;2023-02-15T01:24:44;2.40;99.90
18252;DHT22;26917;52.328;20.878;2023-02-15T01:27:12;2.30;99.90
18252;DHT22;26917;52.328;20.878;2023-02-15T01:29:41;2.60;99.90
18252;DHT22;26917;52.328;20.878;2023-02-15T01:32:10;2.40;99.90
18252;DHT22;26917;52.328;20.878;2023-02-15T01:34:42;1.90;99.90
18252;DHT22;26917;52.328;20.878;2023-02-15T01:37:12;2.40;99.90
18252;DHT22;26917;52.328;20.878;2023-02-15T01:39:41;2.90;99.90
18252;DHT22;26917;52.328;20.878;2023-02-15T01:42:10;2.40;99.90
18252;DHT22;26917;52.328;20.878;2023-02-15T01:44:50;2.10;99.90
18252;DHT22;26917;52.328;20.878;2023-02-15T01:47:23;2.60;99.90
18252;DHT22;26917;52.328;20.878;2023-02-15T01:50:02;2.70;99.90
18252;DHT22;26917;52.328;20.878;2023-02-15T01:52:32;2.90;99.90
18252;DHT22;26917;52.328;20.878;2023-02-15T01:55:01;2.40;99.90
18252;DHT22;26917;52.328;20.878;2023-02-15T01:57:33;2.40;99.90
18252;DHT22;26917;52.328;20.878;2023-02-15T02:00:05;3.20;99.90
18252;DHT22;26917;52.328;20.878;2023-02-15T02:02:43;2.30;99.90
18252;DHT22;26917;52.328;20.878;2023-02-15T02:05:14;2.20;99.90
18252;DHT22;26917;52.328;20.878;2023-02-15T02:07:44;2.30;99.90
18252;DHT22;26917;52.328;20.878;2023-02-15T02:10:15;3.20;99.90
18252;DHT22;26917;52.328;20.878;2023-02-15T02:12:51;2.30;99.90
18252;DHT22;26917;52.328;20.878;2023-02-15T02:15:25;2.30;99.90
18252;DHT22;26917;52.328;20.878;2023-02-15T02:18:05;2.10;99.90
18252;DHT22;26917;52.328;20.878;2023-02-15T02:24:27;2.40;99.90
18252;DHT22;26917;52.328;20.878;2023-02-15T02:27:30;2.40;99.90
18252;DHT22;26917;52.328;20.878;2023-02-15T02:30:19;2.40;99.90
18252;DHT22;26917;52.328;20.878;2023-02-15T02:33:23;2.40;99.90
18252;DHT22;26917;52.328;20.878;2023-02-15T02:36:00;2.40;99.90
18252;DHT22;26917;52.328;20.878;2023-02-15T02:38:40;2.80;99.90
18252;DHT22;26917;52.328;20.878;2023-02-15T02:41:17;3.00;99.90
18252;DHT22;26917;52.328;20.878;2023-02-15T02:43:51;2.10;99.90
18252;DHT22;26917;52.328;20.878;2023-02-15T02:46:28;2.30;99.90
18252;DHT22;26917;52.328;20.878;2023-02-15T02:49:01;2.30;99.90
18252;DHT22;26917;52.328;20.878;2023-02-15T02:51:30;2.80;99.90
18252;DHT22;26917;52.328;20.878;2023-02-15T02:54:01;2.30;99.90
18252;DHT22;26917;52.328;20.878;2023-02-15T02:56:36;2.80;99.90
18252;DHT22;26917;52.328;20.878;2023-02-15T02:59:11;2.40;99.90
18252;DHT22;26917;52.328;20.878;2023-02-15T03:01:44;3.60;99.90
18252;DHT22;26917;52.328;20.878;2023-02-15T03:04:18;2.40;99.90
18252;DHT22;26917;52.328;20.878;2023-02-15T03:06:51;2.40;99.90
18252;DHT22;26917;52.328;20.878;2023-02-15T03:09:25;3.10;99.90
18252;DHT22;26917;52.328;20.878;2023-02-15T03:12:11;2.50;99.90
18252;DHT22;26917;52.328;20.878;2023-02-15T03:14:47;3.70;99.90
18252;DHT22;26917;52.328;20.878;2023-02-15T03:17:17;2.50;99.90
18252;DHT22;26917;52.328;20.878;2023-02-15T03:19:52;2.50;99.90
18252;DHT22;26917;52.328;20.878;2023-02-15T03:22:26;2.30;99.90
18252;DHT22;26917;52.328;20.878;2023-02-15T03:24:59;2.40;99.90
18252;DHT22;26917;52.328;20.878;2023-02-15T03:27:32;2.40;99.90
18252;DHT22;26917;52.328;20.878;2023-02-15T03:30:02;2.50;99.90
18252;DHT22;26917;52.328;20.878;2023-02-15T03:32:33;2.50;99.90
18252;DHT22;26917;52.328;20.878;2023-02-15T03:35:05;2.50;99.90
18252;DHT22;26917;52.328;20.878;2023-02-15T03:37:37;2.50;99.90
18252;DHT22;26917;52.328;20.878;2023-02-15T03:40:09;2.80;99.90
18252;DHT22;26917;52.328;20.878;2023-02-15T03:43:10;2.80;99.90
18252;DHT22;26917;52.328;20.878;2023-02-15T03:45:40;2.90;99.90
18252;DHT22;26917;52.328;20.878;2023-02-15T03:48:26;3.30;99.90
18252;DHT22;26917;52.328;20.878;2023-02-15T03:50:59;3.10;99.90
18252;DHT22;26917;52.328;20.878;2023-02-15T03:53:52;2.40;99.90
18252;DHT22;26917;52.328;20.878;2023-02-15T03:56:22;2.30;99.90
18252;DHT22;26917;52.328;20.878;2023-02-15T03:58:50;3.10;99.90
18252;DHT22;26917;52.328;20.878;2023-02-15T04:01:40;2.50;99.90
18252;DHT22;26917;52.328;20.878;2023-02-15T04:04:43;2.70;99.90
18252;DHT22;26917;52.328;20.878;2023-02-15T04:07:15;2.60;99.90
18252;DHT22;26917;52.328;20.878;2023-02-15T04:09:43;2.50;99.90
18252;DHT22;26917;52.328;20.878;2023-02-15T04:12:29;1.90;99.90
18252;DHT22;26917;52.328;20.878;2023-02-15T04:14:59;2.40;99.90
18252;DHT22;26917;52.328;20.878;2023-02-15T04:17:45;2.10;99.90
18252;DHT22;26917;52.328;20.878;2023-02-15T04:20:13;3.00;99.90
18252;DHT22;26917;52.328;20.878;2023-02-15T04:23:07;2.50;99.90
18252;DHT22;26917;52.328;20.878;2023-02-15T04:25:52;2.60;99.90
18252;DHT22;26917;52.328;20.878;2023-02-15T04:28:21;2.50;99.90
18252;DHT22;26917;52.328;20.878;2023-02-15T04:30:49;3.30;99.90
18252;DHT22;26917;52.328;20.878;2023-02-15T04:33:18;2.80;99.90
18252;DHT22;26917;52.328;20.878;2023-02-15T04:35:46;2.50;99.90
18252;DHT22;26917;52.328;20.878;2023-02-15T04:38:16;3.70;99.90
18252;DHT22;26917;52.328;20.878;2023-02-15T04:40:49;2.60;99.90
18252;DHT22;26917;52.328;20.878;2023-02-15T04:43:17;2.40;99.90
18252;DHT22;26917;52.328;20.878;2023-02-15T04:45:49;2.50;99.90
18252;DHT22;26917;52.328;20.878;2023-02-15T04:48:18;3.20;99.90
18252;DHT22;26917;52.328;20.878;2023-02-15T04:50:46;2.30;99.90
18252;DHT22;26917;52.328;20.878;2023-02-15T04:53:17;2.60;99.90
18252;DHT22;26917;52.328;20.878;2023-02-15T04:55:45;2.30;99.90
18252;DHT22;26917;52.328;20.878;2023-02-15T04:58:13;2.70;99.90
18252;DHT22;26917;52.328;20.878;2023-02-15T05:00:41;2.80;99.90
18252;DHT22;26917;52.328;20.878;2023-02-15T05:03:10;3.10;99.90
18252;DHT22;26917;52.328;20.878;2023-02-15T05:05:38;2.80;99.90
18252;DHT22;26917;52.328;20.878;2023-02-15T05:08:07;2.80;99.90
18252;DHT22;26917;52.328;20.878;2023-02-15T05:10:38;3.00;99.90
18252;DHT22;26917;52.328;20.878;2023-02-15T05:13:06;3.00;99.90
18252;DHT22;26917;52.328;20.878;2023-02-15T05:15:35;2.80;99.90
18252;DHT22;26917;52.328;20.878;2023-02-15T05:18:03;2.80;99.90
18252;DHT22;26917;52.328;20.878;2023-02-15T05:20:33;2.70;99.90
18252;DHT22;26917;52.328;20.878;2023-02-15T05:23:01;3.10;99.90
18252;DHT22;26917;52.328;20.878;2023-02-15T05:25:30;3.40;99.90
18252;DHT22;26917;52.328;20.878;2023-02-15T05:28:17;2.80;99.90
18252;DHT22;26917;52.328;20.878;2023-02-15T05:30:48;3.30;99.90
18252;DHT22;26917;52.328;20.878;2023-02-15T05:33:18;2.80;99.90
18252;DHT22;26917;52.328;20.878;2023-02-15T05:35:46;2.90;99.90
18252;DHT22;26917;52.328;20.878;2023-02-15T05:38:14;2.90;99.90
18252;DHT22;26917;52.328;20.878;2023-02-15T05:40:42;3.20;99.90
18252;DHT22;26917;52.328;20.878;2023-02-15T05:43:11;2.50;99.90
18252;DHT22;26917;52.328;20.878;2023-02-15T05:45:44;3.40;99.90
18252;DHT22;26917;52.328;20.878;2023-02-15T05:48:14;3.40;99.90
18252;DHT22;26917;52.328;20.878;2023-02-15T05:50:42;2.90;99.90
18252;DHT22;26917;52.328;20.878;2023-02-15T05:53:11;2.90;99.90
18252;DHT22;26917;52.328;20.878;2023-02-15T05:55:40;2.90;99.90
18252;DHT22;26917;52.328;20.878;2023-02-15T05:58:09;3.50;99.90
18252;DHT22;26917;52.328;20.878;2023-02-15T06:00:37;2.90;99.90
18252;DHT22;26917;52.328;20.878;2023-02-15T06:03:07;3.70;99.90
18252;DHT22;26917;52.328;20.878;2023-02-15T06:05:35;3.30;99.90
18252;DHT22;26917;52.328;20.878;2023-02-15T06:08:04;3.80;99.90
18252;DHT22;26917;52.328;20.878;2023-02-15T06:10:35;2.70;99.90
18252;DHT22;26917;52.328;20.878;2023-02-15T06:13:03;3.50;99.90
18252;DHT22;26917;52.328;20.878;2023-02-15T06:15:32;2.80;99.90
18252;DHT22;26917;52.328;20.878;2023-02-15T06:18:00;3.20;99.90
18252;DHT22;26917;52.328;20.878;2023-02-15T06:20:30;2.80;99.90
18252;DHT22;26917;52.328;20.878;2023-02-15T06:22:59;2.90;99.90
18252;DHT22;26917;52.328;20.878;2023-02-15T06:25:27;3.00;99.90
18252;DHT22;26917;52.328;20.878;2023-02-15T06:27:56;3.00;99.90
18252;DHT22;26917;52.328;20.878;2023-02-15T06:30:24;3.20;99.90
18252;DHT22;26917;52.328;20.878;2023-02-15T06:32:52;2.90;99.90
18252;DHT22;26917;52.328;20.878;2023-02-15T06:35:21;3.00;99.90
18252;DHT22;26917;52.328;20.878;2023-02-15T06:37:51;3.20;99.90
18252;DHT22;26917;52.328;20.878;2023-02-15T06:40:19;3.00;99.90
18252;DHT22;26917;52.328;20.878;2023-02-15T06:42:48;2.90;99.90
18252;DHT22;26917;52.328;20.878;2023-02-15T06:45:16;3.60;99.90
18252;DHT22;26917;52.328;20.878;2023-02-15T06:47:44;3.10;99.90
18252;DHT22;26917;52.328;20.878;2023-02-15T06:50:12;3.70;99.90
18252;DHT22;26917;52.328;20.878;2023-02-15T06:52:41;3.80;99.90
18252;DHT22;26917;52.328;20.878;2023-02-15T06:55:11;4.20;99.90
18252;DHT22;26917;52.328;20.878;2023-02-15T06:57:39;3.40;99.90
18252;DHT22;26917;52.328;20.878;2023-02-15T07:00:08;3.40;99.90
18252;DHT22;26917;52.328;20.878;2023-02-15T07:02:37;3.10;99.90
18252;DHT22;26917;52.328;20.878;2023-02-15T07:05:05;3.30;99.90
18252;DHT22;26917;52.328;20.878;2023-02-15T07:07:34;3.20;99.90
18252;DHT22;26917;52.328;20.878;2023-02-15T07:10:03;2.90;99.90
18252;DHT22;26917;52.328;20.878;2023-02-15T07:12:33;3.20;99.90
18252;DHT22;26917;52.328;20.878;2023-02-15T07:15:10;3.10;99.90
18252;DHT22;26917;52.328;20.878;2023-02-15T07:17:39;3.20;99.90
18252;DHT22;26917;52.328;20.878;2023-02-15T07:20:10;3.90;99.90
18252;DHT22;26917;52.328;20.878;2023-02-15T07:22:38;3.30;99.90
18252;DHT22;26917;52.328;20.878;2023-02-15T07:25:09;4.10;99.90
18252;DHT22;26917;52.328;20.878;2023-02-15T07:27:40;3.90;99.90
18252;DHT22;26917;52.328;20.878;2023-02-15T07:30:11;3.30;99.90
18252;DHT22;26917;52.328;20.878;2023-02-15T07:32:41;3.30;99.90
18252;DHT22;26917;52.328;20.878;2023-02-15T07:35:24;4.10;99.90
18252;DHT22;26917;52.328;20.878;2023-02-15T07:37:53;3.20;99.90
18252;DHT22;26917;52.328;20.878;2023-02-15T07:40:22;3.40;99.90
18252;DHT22;26917;52.328;20.878;2023-02-15T07:42:52;3.50;99.90
18252;DHT22;26917;52.328;20.878;2023-02-15T07:45:22;4.10;99.90
18252;DHT22;26917;52.328;20.878;2023-02-15T07:47:50;3.30;99.90
18252;DHT22;26917;52.328;20.878;2023-02-15T07:50:18;3.10;99.90
18252;DHT22;26917;52.328;20.878;2023-02-15T07:52:47;3.70;99.90
18252;DHT22;26917;52.328;20.878;2023-02-15T07:55:15;3.90;99.90
18252;DHT22;26917;52.328;20.878;2023-02-15T07:57:44;3.40;99.90
18252;DHT22;26917;52.328;20.878;2023-02-15T08:00:15;3.50;99.90
18252;DHT22;26917;52.328;20.878;2023-02-15T08:02:47;3.40;99.90
18252;DHT22;26917;52.328;20.878;2023-02-15T08:05:36;3.40;99.90
18252;DHT22;26917;52.328;20.878;2023-02-15T08:08:05;3.40;99.90
18252;DHT22;26917;52.328;20.878;2023-02-15T08:10:35;3.60;99.90
18252;DHT22;26917;52.328;20.878;2023-02-15T08:13:21;3.50;99.90
18252;DHT22;26917;52.328;20.878;2023-02-15T08:15:51;4.00;99.90
18252;DHT22;26917;52.328;20.878;2023-02-15T08:18:19;3.40;99.90
18252;DHT22;26917;52.328;20.878;2023-02-15T08:20:49;2.80;99.90
18252;DHT22;26917;52.328;20.878;2023-02-15T08:23:18;3.50;99.90
18252;DHT22;26917;52.328;20.878;2023-02-15T08:25:46;3.80;99.90
18252;DHT22;26917;52.328;20.878;2023-02-15T08:28:14;3.30;99.90
18252;DHT22;26917;52.328;20.878;2023-02-15T08:30:43;4.20;99.90
18252;DHT22;26917;52.328;20.878;2023-02-15T08:33:12;3.20;99.90
18252;DHT22;26917;52.328;20.878;2023-02-15T08:35:41;3.00;99.90
18252;DHT22;26917;52.328;20.878;2023-02-15T08:38:09;3.60;99.90
18252;DHT22;26917;52.328;20.878;2023-02-15T08:40:37;3.50;99.90
18252;DHT22;26917;52.328;20.878;2023-02-15T08:43:06;2.90;99.90
18252;DHT22;26917;52.328;20.878;2023-02-15T08:45:36;3.20;99.90
18252;DHT22;26917;52.328;20.878;2023-02-15T08:48:04;3.30;99.90
18252;DHT22;26917;52.328;20.878;2023-02-15T08:50:34;3.30;99.90
18252;DHT22;26917;52.328;20.878;2023-02-15T08:53:02;3.30;99.90
18252;DHT22;26917;52.328;20.878;2023-02-15T08:55:31;3.80;99.90
18252;DHT22;26917;52.328;20.878;2023-02-15T08:57:59;3.50;99.90
18252;DHT22;26917;52.328;20.878;2023-02-15T09:00:27;3.40;99.90
18252;DHT22;26917;52.328;20.878;2023-02-15T09:02:56;3.40;99.90
18252;DHT22;26917;52.328;20.878;2023-02-15T09:05:25;3.40;99.90
18252;DHT22;26917;52.328;20.878;2023-02-15T09:08:10;3.40;99.90
18252;DHT22;26917;52.328;20.878;2023-02-15T09:10:39;3.20;99.90
18252;DHT22;26917;52.328;20.878;2023-02-15T09:13:07;4.00;99.90
18252;DHT22;26917;52.328;20.878;2023-02-15T09:15:35;3.20;99.90
18252;DHT22;26917;52.328;20.878;2023-02-15T09:18:04;3.10;99.90
18252;DHT22;26917;52.328;20.878;2023-02-15T09:20:35;3.20;99.90
18252;DHT22;26917;52.328;20.878;2023-02-15T09:23:04;3.20;99.90
18252;DHT22;26917;52.328;20.878;2023-02-15T09:25:35;3.60;99.90
18252;DHT22;26917;52.328;20.878;2023-02-15T09:28:04;3.20;99.90
18252;DHT22;26917;52.328;20.878;2023-02-15T09:30:33;3.20;99.90
18252;DHT22;26917;52.328;20.878;2023-02-15T09:33:02;3.30;99.90
18252;DHT22;26917;52.328;20.878;2023-02-15T09:35:30;3.30;99.90
18252;DHT22;26917;52.328;20.878;2023-02-15T09:37:59;3.00;99.90
18252;DHT22;26917;52.328;20.878;2023-02-15T09:40:31;3.40;99.90
18252;DHT22;26917;52.328;20.878;2023-02-15T09:43:18;3.50;99.90
18252;DHT22;26917;52.328;20.878;2023-02-15T09:46:11;3.30;99.90
18252;DHT22;26917;52.328;20.878;2023-02-15T09:48:50;3.40;99.90
18252;DHT22;26917;52.328;20.878;2023-02-15T09:54:44;3.50;99.90
18252;DHT22;26917;52.328;20.878;2023-02-15T09:57:22;3.50;99.90
18252;DHT22;26917;52.328;20.878;2023-02-15T10:00:02;3.20;99.90
18252;DHT22;26917;52.328;20.878;2023-02-15T10:02:51;3.40;99.90
18252;DHT22;26917;52.328;20.878;2023-02-15T10:05:31;3.70;99.90
18252;DHT22;26917;52.328;20.878;2023-02-15T10:08:19;3.40;99.90
18252;DHT22;26917;52.328;20.878;2023-02-15T10:10:57;3.30;99.90
18252;DHT22;26917;52.328;20.878;2023-02-15T10:13:57;3.30;99.90
18252;DHT22;26917;52.328;20.878;2023-02-15T10:16:37;4.00;99.90
18252;DHT22;26917;52.328;20.878;2023-02-15T10:19:11;3.40;99.90
18252;DHT22;26917;52.328;20.878;2023-02-15T10:21:52;3.20;99.90
18252;DHT22;26917;52.328;20.878;2023-02-15T10:24:55;4.00;99.90
18252;DHT22;26917;52.328;20.878;2023-02-15T10:27:27;3.60;99.90
18252;DHT22;26917;52.328;20.878;2023-02-15T10:30:06;3.20;99.90
18252;DHT22;26917;52.328;20.878;2023-02-15T10:32:44;3.60;99.90
18252;DHT22;26917;52.328;20.878;2023-02-15T10:35:22;3.50;99.90
18252;DHT22;26917;52.328;20.878;2023-02-15T10:38:01;3.80;99.90
18252;DHT22;26917;52.328;20.878;2023-02-15T10:40:36;3.30;99.90
18252;DHT22;26917;52.328;20.878;2023-02-15T10:43:18;3.90;99.90
18252;DHT22;26917;52.328;20.878;2023-02-15T10:45:54;3.90;99.90
18252;DHT22;26917;52.328;20.878;2023-02-15T10:48:39;4.40;99.90
18252;DHT22;26917;52.328;20.878;2023-02-15T10:51:16;4.10;99.90
18252;DHT22;26917;52.328;20.878;2023-02-15T10:53:59;3.50;99.90
18252;DHT22;26917;52.328;20.878;2023-02-15T10:56:36;3.20;99.90
18252;DHT22;26917;52.328;20.878;2023-02-15T10:59:23;3.60;99.90
18252;DHT22;26917;52.328;20.878;2023-02-15T11:01:58;3.60;99.90
18252;DHT22;26917;52.328;20.878;2023-02-15T11:04:44;3.60;99.90
18252;DHT22;26917;52.328;20.878;2023-02-15T11:07:17;4.20;99.90
18252;DHT22;26917;52.328;20.878;2023-02-15T11:09:50;3.40;99.90
18252;DHT22;26917;52.328;20.878;2023-02-15T11:12:22;3.60;99.90
18252;DHT22;26917;52.328;20.878;2023-02-15T11:14:57;3.60;99.90
18252;DHT22;26917;52.328;20.878;2023-02-15T11:17:30;3.80;99.90
18252;DHT22;26917;52.328;20.878;2023-02-15T11:20:11;3.80;99.90
18252;DHT22;26917;52.328;20.878;2023-02-15T11:22:47;3.80;99.90
18252;DHT22;26917;52.328;20.878;2023-02-15T11:25:19;3.60;99.90
18252;DHT22;26917;52.328;20.878;2023-02-15T11:27:48;3.90;99.90
18252;DHT22;26917;52.328;20.878;2023-02-15T11:30:20;3.60;99.90
18252;DHT22;26917;52.328;20.878;2023-02-15T11:32:51;3.60;99.90
18252;DHT22;26917;52.328;20.878;2023-02-15T11:35:27;3.80;99.90
18252;DHT22;26917;52.328;20.878;2023-02-15T11:38:03;3.80;99.90
18252;DHT22;26917;52.328;20.878;2023-02-15T11:40:35;4.50;99.90
18252;DHT22;26917;52.328;20.878;2023-02-15T11:43:06;3.60;99.90
18252;DHT22;26917;52.328;20.878;2023-02-15T11:45:40;4.20;99.90
18252;DHT22;26917;52.328;20.878;2023-02-15T11:48:11;3.90;99.90
18252;DHT22;26917;52.328;20.878;2023-02-15T11:50:56;3.80;99.90
18252;DHT22;26917;52.328;20.878;2023-02-15T11:53:26;4.30;99.90
18252;DHT22;26917;52.328;20.878;2023-02-15T11:55:57;3.60;99.90
18252;DHT22;26917;52.328;20.878;2023-02-15T11:58:32;4.00;99.90
18252;DHT22;26917;52.328;20.878;2023-02-15T12:01:08;3.40;99.90
18252;DHT22;26917;52.328;20.878;2023-02-15T12:03:44;3.90;99.90
18252;DHT22;26917;52.328;20.878;2023-02-15T12:06:28;3.20;99.90
18252;DHT22;26917;52.328;20.878;2023-02-15T12:09:03;3.40;99.90
18252;DHT22;26917;52.328;20.878;2023-02-15T12:11:36;3.50;99.90
18252;DHT22;26917;52.328;20.878;2023-02-15T12:14:07;3.60;99.90
18252;DHT22;26917;52.328;20.878;2023-02-15T12:16:42;3.50;99.90
18252;DHT22;26917;52.328;20.878;2023-02-15T12:19:21;3.50;99.90
18252;DHT22;26917;52.328;20.878;2023-02-15T12:21:56;4.10;99.90
18252;DHT22;26917;52.328;20.878;2023-02-15T12:24:27;3.50;99.90
18252;DHT22;26917;52.328;20.878;2023-02-15T12:26:59;3.50;99.90
18252;DHT22;26917;52.328;20.878;2023-02-15T12:29:31;3.60;99.90
18252;DHT22;26917;52.328;20.878;2023-02-15T12:32:03;4.20;99.90
18252;DHT22;26917;52.328;20.878;2023-02-15T12:34:37;3.50;99.90
18252;DHT22;26917;52.328;20.878;2023-02-15T12:37:15;3.90;99.90
18252;DHT22;26917;52.328;20.878;2023-02-15T12:39:52;3.90;99.90
18252;DHT22;26917;52.328;20.878;2023-02-15T12:42:21;3.50;99.90
18252;DHT22;26917;52.328;20.878;2023-02-15T12:44:56;3.50;99.90
18252;DHT22;26917;52.328;20.878;2023-02-15T12:47:26;3.50;99.90
18252;DHT22;26917;52.328;20.878;2023-02-15T12:50:11;4.20;99.90
18252;DHT22;26917;52.328;20.878;2023-02-15T12:52:49;3.60;99.90
18252;DHT22;26917;52.328;20.878;2023-02-15T12:55:21;4.20;99.90
18252;DHT22;26917;52.328;20.878;2023-02-15T12:58:06;3.70;99.90
18252;DHT22;26917;52.328;20.878;2023-02-15T13:00:34;3.80;99.90
18252;DHT22;26917;52.328;20.878;2023-02-15T13:03:04;3.50;99.90
18252;DHT22;26917;52.328;20.878;2023-02-15T13:05:36;3.70;99.90
18252;DHT22;26917;52.328;20.878;2023-02-15T13:08:13;3.80;99.90
18252;DHT22;26917;52.328;20.878;2023-02-15T13:10:53;3.50;99.90
18252;DHT22;26917;52.328;20.878;2023-02-15T13:13:24;4.00;99.90
18252;DHT22;26917;52.328;20.878;2023-02-15T13:15:55;4.40;99.90
18252;DHT22;26917;52.328;20.878;2023-02-15T13:18:30;3.70;99.90
18252;DHT22;26917;52.328;20.878;2023-02-15T13:21:06;3.70;99.90
18252;DHT22;26917;52.328;20.878;2023-02-15T13:23:42;3.70;99.90
18252;DHT22;26917;52.328;20.878;2023-02-15T13:26:18;4.10;99.90
18252;DHT22;26917;52.328;20.878;2023-02-15T13:28:49;3.90;99.90
18252;DHT22;26917;52.328;20.878;2023-02-15T13:31:22;4.10;99.90
18252;DHT22;26917;52.328;20.878;2023-02-15T13:33:53;4.50;99.90
18252;DHT22;26917;52.328;20.878;2023-02-15T13:36:26;3.80;99.90
18252;DHT22;26917;52.328;20.878;2023-02-15T13:39:08;3.80;99.90
18252;DHT22;26917;52.328;20.878;2023-02-15T13:41:48;3.60;99.90
18252;DHT22;26917;52.328;20.878;2023-02-15T13:44:29;4.00;99.90
18252;DHT22;26917;52.328;20.878;2023-02-15T13:47:16;4.60;99.90
18252;DHT22;26917;52.328;20.878;2023-02-15T13:49:55;4.40;99.90
18252;DHT22;26917;52.328;20.878;2023-02-15T13:52:28;4.40;99.90
18252;DHT22;26917;52.328;20.878;2023-02-15T13:58:14;4.00;99.90
18252;DHT22;26917;52.328;20.878;2023-02-15T14:00:48;3.80;99.90
18252;DHT22;26917;52.328;20.878;2023-02-15T14:03:43;4.40;99.90
18252;DHT22;26917;52.328;20.878;2023-02-15T14:06:50;3.70;99.90
18252;DHT22;26917;52.328;20.878;2023-02-15T14:09:32;3.90;99.90
18252;DHT22;26917;52.328;20.878;2023-02-15T14:12:23;4.20;99.90
18252;DHT22;26917;52.328;20.878;2023-02-15T14:15:13;4.00;99.90
18252;DHT22;26917;52.328;20.878;2023-02-15T14:17:59;4.00;99.90
18252;DHT22;26917;52.328;20.878;2023-02-15T14:20:39;4.30;99.90
18252;DHT22;26917;52.328;20.878;2023-02-15T14:23:17;3.90;99.90
18252;DHT22;26917;52.328;20.878;2023-02-15T14:26:00;3.70;99.90
18252;DHT22;26917;52.328;20.878;2023-02-15T14:28:37;3.70;99.90
18252;DHT22;26917;52.328;20.878;2023-02-15T14:31:10;3.80;99.90
18252;DHT22;26917;52.328;20.878;2023-02-15T14:33:40;4.40;99.90
18252;DHT22;26917;52.328;20.878;2023-02-15T14:36:13;3.50;99.90
18252;DHT22;26917;52.328;20.878;2023-02-15T14:38:51;3.70;99.90
18252;DHT22;26917;52.328;20.878;2023-02-15T14:41:25;3.40;99.90
18252;DHT22;26917;52.328;20.878;2023-02-15T14:44:03;3.60;99.90
18252;DHT22;26917;52.328;20.878;2023-02-15T14:46:38;3.80;99.90
18252;DHT22;26917;52.328;20.878;2023-02-15T14:49:12;3.40;99.90
18252;DHT22;26917;52.328;20.878;2023-02-15T14:52:03;3.60;99.90
18252;DHT22;26917;52.328;20.878;2023-02-15T14:54:56;3.40;99.90
18252;DHT22;26917;52.328;20.878;2023-02-15T14:57:30;3.50;99.90
18252;DHT22;26917;52.328;20.878;2023-02-15T15:00:49;3.60;99.90
18252;DHT22;26917;52.328;20.878;2023-02-15T15:03:21;3.50;99.90
18252;DHT22;26917;52.328;20.878;2023-02-15T15:05:53;3.40;99.90
18252;DHT22;26917;52.328;20.878;2023-02-15T15:08:28;3.50;99.90
18252;DHT22;26917;52.328;20.878;2023-02-15T15:16:56;3.70;99.90
18252;DHT22;26917;52.328;20.878;2023-02-15T15:22:45;3.40;99.90
18252;DHT22;26917;52.328;20.878;2023-02-15T15:25:41;2.90;99.90
18252;DHT22;26917;52.328;20.878;2023-02-15T15:28:57;3.40;99.90
18252;DHT22;26917;52.328;20.878;2023-02-15T15:31:43;3.30;99.90
18252;DHT22;26917;52.328;20.878;2023-02-15T15:37:59;3.30;99.90
18252;DHT22;26917;52.328;20.878;2023-02-15T15:40:55;3.40;99.90
18252;DHT22;26917;52.328;20.878;2023-02-15T15:49:50;3.20;99.90
18252;DHT22;26917;52.328;20.878;2023-02-15T15:52:23;3.20;99.90
18252;DHT22;26917;52.328;20.878;2023-02-15T15:54:54;3.20;99.90
18252;DHT22;26917;52.328;20.878;2023-02-15T15:57:27;3.40;99.90
18252;DHT22;26917;52.328;20.878;2023-02-15T15:59:57;3.80;99.90
18252;DHT22;26917;52.328;20.878;2023-02-15T16:02:28;3.20;99.90
18252;DHT22;26917;52.328;20.878;2023-02-15T16:05:06;3.00;99.90
18252;DHT22;26917;52.328;20.878;2023-02-15T16:07:35;3.00;99.90
18252;DHT22;26917;52.328;20.878;2023-02-15T16:10:06;3.00;99.90
18252;DHT22;26917;52.328;20.878;2023-02-15T16:12:38;3.00;99.90
18252;DHT22;26917;52.328;20.878;2023-02-15T16:15:14;3.00;99.90
18252;DHT22;26917;52.328;20.878;2023-02-15T16:17:48;3.50;99.90
18252;DHT22;26917;52.328;20.878;2023-02-15T16:20:20;3.40;99.90
18252;DHT22;26917;52.328;20.878;2023-02-15T16:22:57;3.50;99.90
18252;DHT22;26917;52.328;20.878;2023-02-15T16:25:34;3.40;99.90
18252;DHT22;26917;52.328;20.878;2023-02-15T16:28:08;3.00;99.90
18252;DHT22;26917;52.328;20.878;2023-02-15T16:30:40;3.00;99.90
18252;DHT22;26917;52.328;20.878;2023-02-15T16:33:12;2.80;99.90
18252;DHT22;26917;52.328;20.878;2023-02-15T16:35:53;2.80;99.90
18252;DHT22;26917;52.328;20.878;2023-02-15T16:38:47;2.90;99.90
18252;DHT22;26917;52.328;20.878;2023-02-15T16:41:36;2.80;99.90